createdAt,value
2022-09-12T00:02:35.689Z,12.10
2022-09-12T00:07:38.419Z,12.20
2022-09-12T00:12:41.383Z,12.30
2022-09-12T00:17:44.185Z,12.30
2022-09-12T00:22:47.138Z,12.50
2022-09-12T00:27:49.803Z,12.60
2022-09-12T00:32:54.929Z,12.70
2022-09-12T00:37:57.528Z,12.70
2022-09-12T00:43:00.307Z,12.70
2022-09-12T00:48:04.948Z,12.70
2022-09-12T00:53:09.060Z,12.50
2022-09-12T00:58:20.760Z,12.40
2022-09-12T01:03:24.475Z,12.30
2022-09-12T01:08:28.930Z,12.20
2022-09-12T01:13:34.725Z,12.10
2022-09-12T01:19:12.937Z,12.00
2022-09-12T01:24:37.248Z,11.90
2022-09-12T01:30:00.949Z,11.90
2022-09-12T01:35:27.685Z,11.80
2022-09-12T01:40:33.042Z,11.80
2022-09-12T01:45:46.307Z,11.80
2022-09-12T01:51:05.049Z,11.80
2022-09-12T01:56:13.522Z,11.80
2022-09-12T02:01:29.848Z,11.70
2022-09-12T02:06:47.534Z,11.70
2022-09-12T02:11:54.153Z,11.80
2022-09-12T02:17:04.898Z,11.80
2022-09-12T02:22:11.259Z,11.70
2022-09-12T02:27:18.514Z,11.70
2022-09-12T02:32:43.646Z,11.60
2022-09-12T02:38:05.670Z,11.60
2022-09-12T02:43:08.363Z,11.50
2022-09-12T02:48:34.817Z,11.50
2022-09-12T02:53:38.484Z,11.40
2022-09-12T02:58:41.444Z,11.40
2022-09-12T03:04:09.144Z,11.40
2022-09-12T03:09:11.882Z,11.50
2022-09-12T03:14:36.983Z,11.50
2022-09-12T03:20:02.584Z,11.50
2022-09-12T03:25:17.249Z,11.50
2022-09-12T03:30:19.935Z,11.50
2022-09-12T03:35:24.911Z,11.50
2022-09-12T03:40:27.597Z,11.50
2022-09-12T03:45:30.561Z,11.40
2022-09-12T03:50:34.125Z,11.40
2022-09-12T03:55:39.313Z,11.30
2022-09-12T04:00:43.325Z,11.40
2022-09-12T04:05:47.273Z,11.50
2022-09-12T04:10:49.896Z,11.50
2022-09-12T04:16:00.108Z,11.40
2022-09-12T04:21:08.286Z,11.40
2022-09-12T04:26:12.093Z,11.40
2022-09-12T04:31:18.271Z,11.40
2022-09-12T04:36:20.937Z,11.50
2022-09-12T04:41:26.577Z,11.50
2022-09-12T04:46:34.707Z,11.60
2022-09-12T04:51:39.762Z,11.60
2022-09-12T04:56:44.615Z,11.80
2022-09-12T05:01:47.961Z,11.90
2022-09-12T05:06:50.603Z,11.90
2022-09-12T05:12:08.924Z,12.00
2022-09-12T05:17:11.580Z,12.10
2022-09-12T05:22:14.492Z,12.10
2022-09-12T05:27:17.166Z,12.20
2022-09-12T05:32:19.827Z,12.20
2022-09-12T05:37:23.456Z,12.20
2022-09-12T05:42:26.206Z,12.30
2022-09-12T05:47:29.046Z,12.20
2022-09-12T05:52:32.984Z,12.20
2022-09-12T05:57:36.098Z,12.40
2022-09-12T06:02:39.053Z,12.60
2022-09-12T06:07:41.896Z,12.40
2022-09-12T06:12:44.813Z,12.50
2022-09-12T06:17:51.419Z,12.50
2022-09-12T06:22:54.604Z,12.50
2022-09-12T06:27:57.344Z,12.60
2022-09-12T06:33:00.124Z,12.70
2022-09-12T06:38:02.942Z,12.90
2022-09-12T06:43:05.923Z,12.90
2022-09-12T06:48:09.063Z,13.00
2022-09-12T06:53:11.753Z,12.90
2022-09-12T06:58:14.730Z,13.20
2022-09-12T07:03:17.693Z,13.40
2022-09-12T07:08:20.435Z,13.40
2022-09-12T07:13:23.163Z,13.70
2022-09-12T07:18:25.908Z,13.80
2022-09-12T07:23:29.639Z,13.60
2022-09-12T07:28:34.611Z,13.50
2022-09-12T07:33:38.660Z,13.40
2022-09-12T07:38:42.133Z,13.90
2022-09-12T07:43:45.819Z,14.10
2022-09-12T07:48:52.953Z,14.40
2022-09-12T07:53:56.795Z,14.20
2022-09-12T07:58:59.695Z,14.00
2022-09-12T08:04:03.819Z,14.20
2022-09-12T08:09:08.056Z,14.50
2022-09-12T08:14:10.998Z,14.70
2022-09-12T08:19:13.876Z,15.40
2022-09-12T08:24:16.719Z,15.40
2022-09-12T08:29:20.078Z,15.60
2022-09-12T08:34:22.840Z,16.10
2022-09-12T08:39:25.769Z,17.10
2022-09-12T08:44:43.862Z,15.70
2022-09-12T08:50:12.450Z,17.30
2022-09-12T08:55:24.451Z,18.10
2022-09-12T09:00:39.014Z,16.80
2022-09-12T09:06:00.399Z,17.70
2022-09-12T09:11:21.321Z,18.90
2022-09-12T09:16:30.961Z,20.00
2022-09-12T09:21:56.837Z,17.80
2022-09-12T09:27:14.249Z,17.80
2022-09-12T09:32:30.308Z,18.90
2022-09-12T09:37:45.378Z,19.10
2022-09-12T09:43:23.971Z,18.00
2022-09-12T09:48:34.460Z,17.60
2022-09-12T09:53:54.277Z,19.60
2022-09-12T09:58:57.240Z,20.40
2022-09-12T10:04:00.196Z,19.20
2022-09-12T10:09:36.499Z,19.40
2022-09-12T10:14:42.004Z,21.00
2022-09-12T10:19:52.641Z,21.10
2022-09-12T10:25:03.227Z,20.50
2022-09-12T10:30:19.281Z,20.50
2022-09-12T10:35:23.647Z,20.10
2022-09-12T10:40:33.039Z,21.90
2022-09-12T10:45:37.984Z,21.90
2022-09-12T10:50:42.796Z,20.20
2022-09-12T10:56:10.527Z,21.00
2022-09-12T11:01:38.447Z,22.40
2022-09-12T11:06:47.435Z,23.00
2022-09-12T11:12:08.428Z,22.60
2022-09-12T11:17:37.252Z,22.00
2022-09-12T11:22:55.097Z,23.30
2022-09-12T11:28:12.329Z,23.30
2022-09-12T11:33:29.399Z,21.60
2022-09-12T11:39:04.010Z,22.70
2022-09-12T11:44:46.463Z,21.60
2022-09-12T11:49:51.852Z,21.10
2022-09-12T11:55:06.191Z,21.70
2022-09-12T12:00:18.794Z,20.70
2022-09-12T12:05:29.073Z,22.80
2022-09-12T12:10:39.245Z,23.00
2022-09-12T12:15:57.958Z,23.70
2022-09-12T12:21:19.497Z,22.70
2022-09-12T12:26:43.203Z,22.90
2022-09-12T12:32:04.399Z,23.30
2022-09-12T12:37:19.652Z,24.60
2022-09-12T12:42:34.882Z,23.50
2022-09-12T12:47:46.541Z,22.10
2022-09-12T12:53:17.253Z,23.30
2022-09-12T12:58:33.553Z,22.50
2022-09-12T13:03:37.791Z,21.40
2022-09-12T13:08:54.013Z,20.80
2022-09-12T13:14:03.201Z,22.90
2022-09-12T13:19:29.553Z,22.80
2022-09-12T13:24:32.604Z,22.70
2022-09-12T13:29:35.324Z,23.40
2022-09-12T13:35:00.465Z,23.50
2022-09-12T13:40:24.409Z,23.50
2022-09-12T13:45:27.975Z,23.10
2022-09-12T13:50:58.404Z,22.20
2022-09-12T13:56:01.573Z,22.70
2022-09-12T14:01:10.484Z,21.70
2022-09-12T14:06:13.645Z,20.50
2022-09-12T14:11:27.784Z,20.00
2022-09-12T14:16:33.154Z,20.30
2022-09-12T14:21:37.333Z,21.40
2022-09-12T14:26:42.497Z,22.20
2022-09-12T14:31:45.654Z,21.90
2022-09-12T14:36:51.685Z,22.10
2022-09-12T14:42:05.055Z,22.00
2022-09-12T14:47:21.055Z,21.70
2022-09-12T14:52:35.253Z,22.00
2022-09-12T14:57:41.484Z,22.10
2022-09-12T15:02:45.046Z,21.30
2022-09-12T15:08:00.762Z,21.00
2022-09-12T15:13:06.494Z,21.30
2022-09-12T15:18:09.557Z,21.50
2022-09-12T15:23:34.638Z,20.50
2022-09-12T15:28:37.395Z,20.60
2022-09-12T15:33:40.176Z,20.30
2022-09-12T15:38:43.303Z,19.60
2022-09-12T15:43:47.016Z,19.80
2022-09-12T15:48:50.714Z,19.70
2022-09-12T15:53:53.917Z,19.40
2022-09-12T15:58:59.898Z,19.10
2022-09-12T16:04:04.243Z,18.80
2022-09-12T16:09:06.968Z,18.70
2022-09-12T16:14:14.071Z,17.90
2022-09-12T16:19:16.858Z,17.70
2022-09-12T16:24:19.684Z,17.50
2022-09-12T16:29:22.394Z,16.90
2022-09-12T16:34:25.084Z,16.50
2022-09-12T16:39:27.789Z,16.40
2022-09-12T16:44:30.998Z,16.20
2022-09-12T16:49:33.807Z,16.00
2022-09-12T16:54:36.674Z,15.80
2022-09-12T16:59:39.883Z,15.70
2022-09-12T17:04:42.813Z,15.50
2022-09-12T17:09:48.085Z,15.40
2022-09-12T17:14:50.904Z,15.20
2022-09-12T17:19:53.935Z,15.10
2022-09-12T17:24:56.695Z,14.90
2022-09-12T17:29:59.583Z,14.80
2022-09-12T17:35:02.334Z,14.20
2022-09-12T17:40:05.662Z,13.90
2022-09-12T17:45:09.003Z,13.60
2022-09-12T17:50:30.733Z,13.30
2022-09-12T17:55:38.253Z,13.10
2022-09-12T18:00:59.785Z,12.90
2022-09-12T18:06:02.608Z,12.80
2022-09-12T18:11:06.062Z,12.60
2022-09-12T18:16:11.283Z,12.40
2022-09-12T18:21:14.222Z,12.30
2022-09-12T18:26:17.094Z,12.40
2022-09-12T18:31:22.172Z,12.50
2022-09-12T18:36:25.088Z,12.60
2022-09-12T18:41:29.186Z,12.50
2022-09-12T18:46:33.918Z,12.40
2022-09-12T18:51:40.245Z,12.20
2022-09-12T18:56:44.232Z,12.20
2022-09-12T19:01:47.528Z,12.20
2022-09-12T19:06:51.083Z,12.30
2022-09-12T19:11:54.128Z,12.30
2022-09-12T19:16:57.244Z,12.30
2022-09-12T19:22:00.064Z,12.30
2022-09-12T19:27:02.864Z,12.40
2022-09-12T19:32:05.784Z,12.30
2022-09-12T19:37:08.633Z,12.30
2022-09-12T19:42:12.133Z,12.20
2022-09-12T19:47:14.943Z,12.00
2022-09-12T19:52:17.710Z,11.70
2022-09-12T19:57:20.454Z,11.60
2022-09-12T20:02:25.847Z,11.60
2022-09-12T20:07:29.584Z,11.60
2022-09-12T20:12:32.414Z,11.50
2022-09-12T20:17:36.422Z,11.30
2022-09-12T20:22:40.502Z,11.10
2022-09-12T20:27:43.534Z,11.00
2022-09-12T20:32:46.474Z,11.00
2022-09-12T20:37:49.766Z,10.80
2022-09-12T20:42:53.076Z,10.70
2022-09-12T20:47:55.844Z,10.60
2022-09-12T20:52:59.255Z,10.50
2022-09-12T20:58:01.942Z,10.50
2022-09-12T21:03:04.665Z,10.40
2022-09-12T21:08:07.432Z,10.30
2022-09-12T21:13:11.412Z,10.30
2022-09-12T21:18:14.749Z,10.20
2022-09-12T21:23:17.375Z,10.20
2022-09-12T21:28:20.520Z,10.20
2022-09-12T21:33:23.929Z,10.10
2022-09-12T21:38:26.741Z,10.20
2022-09-12T21:43:29.427Z,10.20
2022-09-12T21:48:32.337Z,10.10
2022-09-12T21:53:37.570Z,10.10
2022-09-12T21:58:40.450Z,10.00
2022-09-12T22:03:43.405Z,10.00
2022-09-12T22:08:46.039Z,9.90
2022-09-12T22:13:48.881Z,9.90
2022-09-12T22:18:52.868Z,9.90
2022-09-12T22:24:16.544Z,9.80
2022-09-12T22:29:20.216Z,9.80
2022-09-12T22:34:23.368Z,9.70
2022-09-12T22:39:26.520Z,9.70
2022-09-12T22:44:29.293Z,9.60
2022-09-12T22:49:32.427Z,9.50
2022-09-12T22:54:35.269Z,9.50
2022-09-12T22:59:38.351Z,9.50
2022-09-12T23:04:41.072Z,9.50
2022-09-12T23:09:44.258Z,9.40
2022-09-12T23:14:47.835Z,9.40
2022-09-12T23:19:50.521Z,9.40
2022-09-12T23:24:53.283Z,9.30
2022-09-12T23:29:56.022Z,9.20
2022-09-12T23:34:59.383Z,9.20
2022-09-12T23:40:03.239Z,9.20
2022-09-12T23:45:06.377Z,9.20
2022-09-12T23:50:09.484Z,9.10
2022-09-12T23:55:12.446Z,9.00
